Flight Track Log - Related Links

Times and Time Zones

All times are in EDT time to prevent confusion due to time zone crossing. See the SWA385 flight status page for this flight to view local times or setup timezone preferences in your user account.

Time Position Orientation Groundspeed Altitude Reporting Facility
EDT Latitude Longitude Course Direction KTS MPH feet Rate Location/Type
Mon 04:59:48 PM 38.9500 -77.5167 270° West 179 206 1,900  Level Potomac TRACON
Mon 05:01:00 PM 38.8938 -77.6624 237° Southwest  Level FlightAware
Mon 05:02:34 PM 38.8878 -77.7572 237° Southwest 270 311 9,300  Level Washington Center
Mon 05:03:33 PM 38.9214 -77.8461 296° West 254 292 11,400 2,450 Climbing Washington Center
Mon 05:04:34 PM 38.9631 -77.9542 296° West 289 333 14,200 3,074 Climbing Washington Center
Mon 05:05:00 PM 38.9500 -78.2289 270° West  Level FlightAware
Mon 05:05:34 PM 38.9628 -78.0825 270° West 334 384 17,600  Level Washington Center
Mon 05:06:35 PM 38.9600 -78.2106 268° West 348 400 20,000 2,471 Climbing Washington Center
Mon 05:07:33 PM 38.9631 -78.3467 272° West 369 425 22,500 2,420 Climbing Washington Center
Mon 05:08:34 PM 38.9681 -78.4911 273° West 384 442 24,800 2,016 Climbing Washington Center
Mon 05:09:35 PM 38.9728 -78.6381 272° West 403 464 26,600 2,231 Climbing Washington Center
Mon 05:10:35 PM 38.9772 -78.7878 272° West 418 481 29,300 2,420 Climbing Washington Center
Mon 05:11:34 PM 38.9817 -78.9350 272° West 418 481 31,400 1,866 Climbing Washington Center
Mon 05:12:34 PM 38.9836 -79.0819 271° West 418 481 33,000 857 Climbing Washington Center
Mon 05:13:33 PM 38.9878 -79.2289 272° West 418 481 33,100 101 Climbing Washington Center
Mon 05:14:33 PM 38.9908 -79.3922 271° West 437 503 33,200 942 Climbing Washington Center
Mon 05:15:34 PM 38.9958 -79.5606 272° West 460 529 35,000 1,587 Climbing Washington Center
Mon 05:16:34 PM 39.0033 -79.7158 274° West 486 559 36,400 1,355 Climbing Washington Center
Mon 05:17:38 PM 39.0006 -79.8981 269° West 467 537 37,800 1,152 Climbing Indianapolis Center
Mon 05:18:39 PM 39.0039 -80.0611 272° West 470 541 38,800 1,073 Climbing Indianapolis Center
Mon 05:19:41 PM 39.0069 -80.2494 271° West 466 536 40,000 581 Climbing Indianapolis Center
Mon 05:20:43 PM 39.0106 -80.4139 272° West 463 533 40,000  Level Indianapolis Center
Mon 05:21:45 PM 39.0342 -80.5706 281° West 459 528 40,000  Level Indianapolis Center
Mon 05:22:47 PM 39.0969 -80.7139 299° West 462 532 40,000  Level Indianapolis Center
Mon 05:23:49 PM 39.1606 -80.8542 300° West 458 527 40,000  Level Indianapolis Center
Mon 05:24:51 PM 39.2233 -80.9947 300° West 456 525 40,000  Level Indianapolis Center
Mon 05:25:52 PM 39.2986 -81.1625 300° West 453 521 40,000  Level Indianapolis Center
Mon 05:26:54 PM 39.3619 -81.3033 300° West 455 524 40,000  Level Indianapolis Center
Mon 05:27:56 PM 39.4236 -81.4431 300° West 452 520 40,000  Level Indianapolis Center
Mon 05:28:58 PM 39.4858 -81.5847 300° West 454 522 40,000  Level Indianapolis Center
Mon 05:30:00 PM 39.5486 -81.7269 300° West 455 524 40,000  Level Indianapolis Center
Mon 05:31:01 PM 39.6106 -81.8706 299° West 456 525 40,000  Level Indianapolis Center
Mon 05:32:03 PM 39.6861 -82.0436 300° West 458 527 40,000  Level Indianapolis Center
Mon 05:33:05 PM 39.7400 -82.1683 299° West 459 528 40,000  Level Indianapolis Center
Mon 05:34:07 PM 39.8125 -82.3397 299° West 459 528 40,000  Level Indianapolis Center
Mon 05:35:09 PM 39.8756 -82.4853 299° West 459 528 40,000  Level Indianapolis Center
Mon 05:36:11 PM 39.9375 -82.6311 299° West 457 526 40,000  Level Indianapolis Center
Mon 05:37:12 PM 39.9994 -82.7761 299° West 457 526 40,000  Level Indianapolis Center
Mon 05:38:14 PM 40.0611 -82.9219 299° West 457 526 40,000  Level Indianapolis Center
Mon 05:39:16 PM 40.1222 -83.0678 299° West 457 526 40,000  Level Indianapolis Center
Mon 05:40:18 PM 40.1939 -83.2386 299° West 460 529 40,000  Level Indianapolis Center
Mon 05:41:20 PM 40.2544 -83.3853 298° West 458 527 40,000  Level Indianapolis Center
Mon 05:42:21 PM 40.3156 -83.5331 299° West 460 529 40,000 -488 Level Indianapolis Center
Mon 05:43:23 PM 40.3761 -83.6819 298° West 461 531 39,000 -823 Descending Indianapolis Center
Mon 05:44:25 PM 40.4381 -83.8308 299° West 463 533 38,300 -484 Descending Indianapolis Center
Mon 05:45:27 PM 40.4978 -83.9781 298° West 456 525 38,000 -581 Descending Indianapolis Center
Mon 05:46:29 PM 40.5578 -84.1267 298° West 457 526 37,100 -1,790 Descending Indianapolis Center
Mon 05:47:31 PM 40.6275 -84.2986 298° West 454 522 34,300 -2,371 Descending Indianapolis Center
Mon 05:48:33 PM 40.6886 -84.4525 298° West 468 539 32,200 -2,032 Descending Indianapolis Center
Mon 05:49:35 PM 40.7494 -84.6031 298° West 463 533 30,100 -1,065 Descending Indianapolis Center
Mon 05:50:37 PM 40.8083 -84.7556 297° West 463 533 30,000 -48 Descending Indianapolis Center
Mon 05:51:39 PM 40.8686 -84.9075 298° West 465 535 30,000  Level Indianapolis Center
Mon 05:52:41 PM 40.9356 -85.0747 298° West 466 536 30,000 -488 Level Indianapolis Center
Mon 05:53:42 PM 41.0286 -85.1875 318° Northwest 461 531 29,000 -927 Descending Indianapolis Center
Mon 05:54:44 PM 41.1372 -85.2794 327° Northwest 464 534 28,100 -919 Descending Indianapolis Center
Mon 05:55:46 PM 41.2456 -85.3750 326° Northwest 469 540 27,100 -968 Descending Indianapolis Center
Mon 05:56:48 PM 41.3517 -85.4672 327° Northwest 460 529 26,100 -1,113 Descending Indianapolis Center
Mon 05:57:50 PM 41.4567 -85.5606 326° Northwest 455 524 24,800 -2,032 Descending Indianapolis Center
Mon 05:58:52 PM 41.5183 -85.7231 297° West 434 499 21,900 -2,613 Descending Indianapolis Center
Mon 05:59:54 PM 41.5217 -85.8753 272° West 418 481 19,400 -2,177 Descending Indianapolis Center
Mon 06:00:56 PM 41.5250 -86.0214 272° West 405 466 17,400 -2,196 Descending Indianapolis Center
Mon 06:02:27 PM 41.5239 -86.2242 270° West 383 441 13,800 -2,314 Descending Chicago Center
Mon 06:03:29 PM 41.5219 -86.3881 269° West 369 425 11,500 -1,680 Descending Chicago Center
Mon 06:04:32 PM 41.5214 -86.5183 270° West 355 409 10,300 -720 Descending Chicago Center
Mon 06:05:34 PM 41.5200 -86.6475 269° West 350 403 10,000 -145 Descending Chicago Center
Mon 06:06:36 PM 41.5197 -86.7669 270° West 342 394 10,000 -194 Level Chicago Center
Mon 06:07:38 PM 41.5189 -86.8975 270° West 287 330 9,600 -871 Descending Chicago Center
Mon 06:08:40 PM 41.5181 -87.0003 269° West 278 320 8,200 -1,500 Descending Chicago Center
Mon 06:09:42 PM 41.5256 -87.1008 276° West 273 314 6,500 -1,500 Descending Chicago Center
Mon 06:10:44 PM 41.5378 -87.2033 279° West 280 322 5,100 -1,210 Descending Chicago Center
Mon 06:11:46 PM 41.5517 -87.3239 279° West 277 319 4,000 -532 Descending Chicago Center
Mon 06:12:48 PM 41.5639 -87.4217 280° West 272 313 4,000  Level Chicago Center
Mon 06:13:51 PM 41.5756 -87.5192 279° West 270 311 4,000 -144 Level Chicago Center
Mon 06:14:53 PM 41.5881 -87.6178 280° West 270 311 3,700 -484 Descending Chicago Center
Mon 06:15:55 PM 41.6125 -87.7108 289° West 274 315 3,000 -581 Descending Chicago Center
Mon 06:16:57 PM 41.6672 -87.7928 312° West 259 298 2,500 -339 Descending Chicago Center
Mon 06:17:59 PM 41.7164 -87.8308 330° Northwest 231 266 2,300 -484 Descending Chicago Center
Mon 06:19:01 PM 41.7489 -87.7989 36° Northeast 177 204 1,500 -677 Descending Chicago Center
Mon 06:20:03 PM 41.7769 -87.7628 44° Northeast 152 175 900 -581 Descending Chicago Center

Login

Don't have an account? Register now (free) for customized features, flight alerts, and more!